Miao-li, Taiwan
Current Conditions -  °F | °C
As of 2:00 AM on Friday 28 Nov 2014 (Local Time) from RCMQ Reporting Station
Haze Haze  
Wind Chill: 68°   Ceiling: 5000
Heat Index: 68°   Visibility: 2mi
Dew Point: 68°   Wind: 5mph
Humidity: 100%   Direction: 350°N
Pressure: 29.97"   Gusts: NA
Location:  24.57°N, 120.82°E
Report Text: RCMQ 271800Z 35004KT 3200 BR FEW008 BKN050 20/20 Q1015 NOSIG RMK A2998
Loading
Personal Weather Stations






























Interactive Weather Map New forecast layout! Learn more

10-Day Weather Forecast

Advertisements
Track Severe Weather on mobile